createdAt,value
2019-03-03T00:03:32.871Z,19
2019-03-03T00:08:35.225Z,19
2019-03-03T00:13:37.796Z,22
2019-03-03T00:18:40.274Z,23
2019-03-03T00:23:42.679Z,20
2019-03-03T00:28:45.064Z,19
2019-03-03T00:33:47.586Z,18
2019-03-03T00:38:49.973Z,18
2019-03-03T00:43:52.424Z,18
2019-03-03T00:48:54.924Z,19
2019-03-03T00:53:57.344Z,19
2019-03-03T00:58:59.812Z,18
2019-03-03T01:04:02.403Z,15
2019-03-03T01:09:04.728Z,14
2019-03-03T01:14:07.189Z,15
2019-03-03T01:19:09.643Z,16
2019-03-03T01:24:12.122Z,14
2019-03-03T01:29:14.660Z,13
2019-03-03T01:34:17.088Z,14
2019-03-03T01:39:19.494Z,12
2019-03-03T01:44:21.924Z,13
2019-03-03T01:49:24.423Z,13
2019-03-03T01:54:26.861Z,12
2019-03-03T01:59:29.365Z,11
2019-03-03T02:04:31.820Z,11
2019-03-03T02:09:34.345Z,12
2019-03-03T02:14:36.798Z,9
2019-03-03T02:19:39.153Z,10
2019-03-03T02:24:41.624Z,10
2019-03-03T02:29:44.069Z,12
2019-03-03T02:34:46.535Z,12
2019-03-03T02:39:48.992Z,10
2019-03-03T02:44:51.449Z,12
2019-03-03T02:49:53.966Z,10
2019-03-03T02:54:56.350Z,9
2019-03-03T02:59:58.963Z,7
2019-03-03T03:05:01.408Z,9
2019-03-03T03:10:03.738Z,8
2019-03-03T03:15:06.231Z,8
2019-03-03T03:20:08.813Z,8
2019-03-03T03:25:11.117Z,7
2019-03-03T03:30:18.562Z,8
2019-03-03T03:35:16.030Z,7
2019-03-03T03:40:18.504Z,7
2019-03-03T03:45:21.131Z,8
2019-03-03T03:50:23.456Z,8
2019-03-03T03:55:25.899Z,6
2019-03-03T04:00:28.347Z,7
2019-03-03T04:05:30.856Z,6
2019-03-03T04:10:33.249Z,6
2019-03-03T04:15:35.704Z,8
2019-03-03T04:20:38.180Z,8
2019-03-03T04:25:40.633Z,8
2019-03-03T04:30:43.092Z,8
2019-03-03T04:35:45.528Z,6
2019-03-03T04:40:48.033Z,7
2019-03-03T04:45:50.454Z,8
2019-03-03T04:50:52.926Z,5
2019-03-03T04:55:55.367Z,8
2019-03-03T05:00:57.839Z,7
2019-03-03T05:06:00.303Z,5
2019-03-03T05:11:02.739Z,6
2019-03-03T05:16:05.255Z,4
2019-03-03T05:21:07.648Z,7
2019-03-03T05:26:10.188Z,6
2019-03-03T05:31:12.565Z,7
2019-03-03T05:36:15.072Z,9
2019-03-03T05:41:17.569Z,7
2019-03-03T05:46:19.963Z,12
2019-03-03T05:51:22.478Z,10
2019-03-03T05:56:24.908Z,11
2019-03-03T06:01:27.319Z,9
2019-03-03T06:06:29.765Z,10
2019-03-03T06:11:32.238Z,9
2019-03-03T06:16:34.762Z,9
2019-03-03T06:21:37.149Z,11
2019-03-03T06:26:39.611Z,7
2019-03-03T06:31:42.116Z,7
2019-03-03T06:36:44.573Z,9
2019-03-03T06:41:47.112Z,8
2019-03-03T06:46:49.477Z,9
2019-03-03T06:51:51.967Z,7
2019-03-03T06:56:54.372Z,6
2019-03-03T07:01:56.862Z,7
2019-03-03T07:06:59.304Z,12
2019-03-03T07:22:06.730Z,6
2019-03-03T07:27:09.122Z,9
2019-03-03T07:32:11.591Z,6
2019-03-03T07:37:14.099Z,6
2019-03-03T07:42:16.510Z,5
2019-03-03T07:47:18.947Z,6
2019-03-03T07:52:21.462Z,4
2019-03-03T07:57:23.872Z,10
2019-03-03T08:02:26.339Z,9
2019-03-03T08:07:28.797Z,7
2019-03-03T08:12:31.356Z,8
2019-03-03T08:17:34.095Z,5
2019-03-03T08:22:36.231Z,5
2019-03-03T08:27:38.728Z,8
2019-03-03T08:32:41.058Z,7
2019-03-03T08:37:43.519Z,7
2019-03-03T08:42:45.980Z,4
2019-03-03T08:47:53.096Z,3
2019-03-03T08:52:50.957Z,5
2019-03-03T08:57:53.346Z,6
2019-03-03T09:02:55.866Z,9
2019-03-03T09:07:58.305Z,4
2019-03-03T09:13:00.721Z,5
2019-03-03T09:18:03.333Z,4
2019-03-03T09:23:05.650Z,4
2019-03-03T09:28:08.197Z,4
2019-03-03T09:33:10.565Z,6
2019-03-03T09:38:13.017Z,10
2019-03-03T09:43:15.466Z,7
2019-03-03T09:48:17.941Z,10
2019-03-03T09:53:20.434Z,9
2019-03-03T09:58:22.860Z,8
2019-03-03T10:03:25.288Z,6
2019-03-03T10:08:27.756Z,7
2019-03-03T10:13:30.208Z,6
2019-03-03T10:18:32.671Z,6
2019-03-03T10:23:35.135Z,5
2019-03-03T10:28:37.589Z,5
2019-03-03T10:33:40.049Z,7
2019-03-03T10:38:42.502Z,14
2019-03-03T10:43:44.972Z,3
2019-03-03T10:48:47.436Z,5
2019-03-03T10:53:49.942Z,9
2019-03-03T10:58:52.349Z,3
2019-03-03T11:03:54.845Z,6
2019-03-03T11:08:57.289Z,5
2019-03-03T11:13:59.823Z,5
2019-03-03T11:19:02.195Z,9
2019-03-03T11:24:04.853Z,9
2019-03-03T11:29:07.091Z,10
2019-03-03T11:34:09.554Z,8
2019-03-03T11:39:12.009Z,8
2019-03-03T11:44:14.549Z,5
2019-03-03T11:49:16.919Z,3
2019-03-03T11:54:19.395Z,4
2019-03-03T11:59:21.974Z,8
2019-03-03T12:04:24.286Z,7
2019-03-03T12:09:26.758Z,10
2019-03-03T12:14:29.188Z,5
2019-03-03T12:19:31.645Z,9
2019-03-03T12:24:34.141Z,5
2019-03-03T12:29:36.559Z,5
2019-03-03T12:34:39.020Z,7
2019-03-03T12:39:41.731Z,4
2019-03-03T12:44:43.947Z,4
2019-03-03T12:49:46.442Z,7
2019-03-03T12:54:48.877Z,6
2019-03-03T12:59:51.323Z,6
2019-03-03T13:04:53.781Z,6
2019-03-03T13:09:56.226Z,6
2019-03-03T13:14:58.707Z,3
2019-03-03T13:20:01.191Z,4
2019-03-03T13:25:03.621Z,6
2019-03-03T13:30:06.086Z,8
2019-03-03T13:35:08.515Z,8
2019-03-03T13:40:11.008Z,5
2019-03-03T13:45:13.446Z,5
2019-03-03T13:50:15.882Z,3
2019-03-03T13:55:18.348Z,7
2019-03-03T14:00:26.104Z,8
2019-03-03T14:05:23.325Z,4
2019-03-03T14:10:25.725Z,10
2019-03-03T14:15:28.192Z,9
2019-03-03T14:20:30.678Z,7
2019-03-03T14:25:33.094Z,9
2019-03-03T14:30:35.565Z,5
2019-03-03T14:35:38.037Z,6
2019-03-03T14:40:40.485Z,6
2019-03-03T14:45:42.917Z,11
2019-03-03T14:50:45.381Z,11
2019-03-03T14:55:47.893Z,14
2019-03-03T15:00:50.295Z,10
2019-03-03T15:05:52.739Z,9
2019-03-03T15:10:55.223Z,7
2019-03-03T15:15:57.665Z,10
2019-03-03T15:21:00.121Z,9
2019-03-03T15:26:02.592Z,7
2019-03-03T15:31:05.118Z,7
2019-03-03T15:36:07.521Z,9
2019-03-03T15:41:09.977Z,8
2019-03-03T15:46:12.443Z,12
2019-03-03T15:51:14.923Z,8
2019-03-03T15:56:17.539Z,7
2019-03-03T16:01:19.769Z,7
2019-03-03T16:06:22.343Z,8
2019-03-03T16:11:24.728Z,5
2019-03-03T16:16:27.249Z,6
2019-03-03T16:21:29.711Z,5
2019-03-03T16:26:32.087Z,6
2019-03-03T16:31:34.536Z,8
2019-03-03T16:36:37.002Z,5
2019-03-03T16:41:39.459Z,7
2019-03-03T16:46:41.891Z,8
2019-03-03T16:51:44.360Z,5
2019-03-03T16:56:46.838Z,6
2019-03-03T17:01:49.250Z,6
2019-03-03T17:06:51.814Z,7
2019-03-03T17:11:54.201Z,26
2019-03-03T17:16:56.638Z,6
2019-03-03T17:21:59.085Z,7
2019-03-03T17:27:01.689Z,6
2019-03-03T17:32:04.007Z,4
2019-03-03T17:37:06.522Z,6
2019-03-03T17:42:08.927Z,4
2019-03-03T17:47:11.542Z,5
2019-03-03T17:52:13.868Z,10
2019-03-03T17:57:16.365Z,7
2019-03-03T18:02:18.758Z,14
2019-03-03T18:07:21.205Z,9
2019-03-03T18:12:23.675Z,7
2019-03-03T18:17:26.132Z,8
2019-03-03T18:22:28.576Z,4
2019-03-03T18:27:31.067Z,3
2019-03-03T18:32:33.530Z,3
2019-03-03T18:37:35.956Z,8
2019-03-03T18:42:38.425Z,4
2019-03-03T18:47:40.911Z,2
2019-03-03T18:52:43.328Z,6
2019-03-03T18:57:45.788Z,8
2019-03-03T19:02:48.255Z,7
2019-03-03T19:07:50.714Z,7
2019-03-03T19:12:53.235Z,9
2019-03-03T19:17:55.608Z,4
2019-03-03T19:22:58.095Z,4
2019-03-03T19:28:00.557Z,6
2019-03-03T19:33:03.031Z,8
2019-03-03T19:38:05.467Z,5
2019-03-03T19:43:07.932Z,2
2019-03-03T19:48:10.495Z,6
2019-03-03T19:53:12.838Z,7
2019-03-03T19:58:15.281Z,3
2019-03-03T20:03:17.747Z,3
2019-03-03T20:08:20.188Z,4
2019-03-03T20:13:22.675Z,4
2019-03-03T20:18:25.156Z,3
2019-03-03T20:23:27.584Z,4
2019-03-03T20:28:30.020Z,4
2019-03-03T20:33:32.551Z,3
2019-03-03T20:38:34.983Z,6
2019-03-03T20:43:37.399Z,5
2019-03-03T20:48:39.844Z,5
2019-03-03T20:53:42.451Z,4
2019-03-03T20:58:44.771Z,6
2019-03-03T21:03:47.233Z,4
2019-03-03T21:08:49.703Z,5
2019-03-03T21:13:52.152Z,3
2019-03-03T21:18:54.598Z,4
2019-03-03T21:23:57.059Z,2
2019-03-03T21:28:59.516Z,4
2019-03-03T21:34:01.977Z,5
2019-03-03T21:39:04.484Z,6
2019-03-03T21:44:06.911Z,3
2019-03-03T21:49:09.344Z,6
2019-03-03T21:54:11.798Z,2
2019-03-03T21:59:14.246Z,2
2019-03-03T22:04:16.715Z,4
2019-03-03T22:09:19.176Z,3
2019-03-03T22:14:21.620Z,3
2019-03-03T22:19:24.114Z,13
2019-03-03T22:24:26.537Z,4
2019-03-03T22:29:28.990Z,5
2019-03-03T22:34:31.454Z,4
2019-03-03T22:39:33.894Z,3
2019-03-03T22:44:38.088Z,4
2019-03-03T22:49:38.895Z,3
2019-03-03T22:54:41.327Z,2
2019-03-03T22:59:43.779Z,4
2019-03-03T23:04:46.248Z,6
2019-03-03T23:09:48.665Z,5
2019-03-03T23:14:51.138Z,6
2019-03-03T23:19:53.562Z,3
2019-03-03T23:24:56.031Z,4
2019-03-03T23:29:58.483Z,5
2019-03-03T23:35:00.934Z,6
2019-03-03T23:40:03.414Z,3
2019-03-03T23:45:05.854Z,5
2019-03-03T23:50:08.307Z,7
2019-03-03T23:55:10.782Z,8
